createdAt,value
2019-05-26T00:01:17.808Z,26.30
2019-05-26T00:03:46.495Z,23.47
2019-05-26T00:06:15.114Z,24.77
2019-05-26T00:08:43.775Z,27.70
2019-05-26T00:11:12.394Z,24.13
2019-05-26T00:13:40.951Z,22.47
2019-05-26T00:16:09.578Z,21.90
2019-05-26T00:18:38.221Z,18.93
2019-05-26T00:21:06.834Z,22.13
2019-05-26T00:23:35.389Z,20.70
2019-05-26T00:26:04.122Z,21.27
2019-05-26T00:28:32.787Z,22.67
2019-05-26T00:31:01.412Z,17.63
2019-05-26T00:33:30.059Z,17.10
2019-05-26T00:35:58.604Z,16.90
2019-05-26T00:38:27.162Z,20.67
2019-05-26T00:40:55.773Z,19.53
2019-05-26T00:43:24.592Z,16.87
2019-05-26T00:45:53.282Z,18.27
2019-05-26T00:48:21.907Z,18.90
2019-05-26T00:50:53.103Z,18.97
2019-05-26T00:53:21.804Z,19.67
2019-05-26T00:55:50.490Z,16.00
2019-05-26T00:58:19.204Z,25.07
2019-05-26T01:00:48.671Z,15.30
2019-05-26T01:03:17.351Z,18.33
2019-05-26T01:05:45.998Z,18.00
2019-05-26T01:08:14.687Z,15.47
2019-05-26T01:10:43.304Z,17.37
2019-05-26T01:13:12.019Z,14.10
2019-05-26T01:15:40.651Z,15.20
2019-05-26T01:18:09.339Z,17.20
2019-05-26T01:20:38.046Z,14.60
2019-05-26T01:23:06.668Z,19.27
2019-05-26T01:25:35.215Z,18.63
2019-05-26T01:28:04.114Z,15.60
2019-05-26T01:30:37.966Z,14.90
2019-05-26T01:33:07.075Z,16.43
2019-05-26T01:35:38.775Z,16.40
2019-05-26T01:38:22.589Z,13.67
2019-05-26T01:40:40.481Z,15.07
2019-05-26T01:43:09.298Z,17.93
2019-05-26T01:45:37.995Z,19.50
2019-05-26T01:48:07.657Z,16.17
2019-05-26T01:50:36.499Z,18.10
2019-05-26T01:53:05.587Z,15.53
2019-05-26T01:55:34.206Z,12.80
2019-05-26T01:58:02.938Z,15.43
2019-05-26T02:00:31.552Z,16.17
2019-05-26T02:03:00.122Z,16.67
2019-05-26T02:05:30.310Z,16.17
2019-05-26T02:07:58.995Z,17.43
2019-05-26T02:10:27.623Z,15.00
2019-05-26T02:12:56.199Z,14.80
2019-05-26T02:15:25.583Z,15.00
2019-05-26T02:17:54.286Z,16.40
2019-05-26T02:20:23.304Z,17.90
2019-05-26T02:22:51.979Z,13.20
2019-05-26T02:25:21.764Z,12.60
2019-05-26T02:27:50.364Z,15.50
2019-05-26T02:30:19.355Z,14.43
2019-05-26T02:32:48.043Z,15.10
2019-05-26T02:35:17.146Z,15.10
2019-05-26T02:37:45.755Z,13.90
2019-05-26T02:40:16.318Z,18.37
2019-05-26T02:42:44.970Z,14.37
2019-05-26T02:45:15.877Z,17.73
2019-05-26T02:47:45.807Z,18.50
2019-05-26T02:50:15.997Z,14.77
2019-05-26T02:52:44.687Z,13.10
2019-05-26T02:55:13.975Z,12.90
2019-05-26T02:57:42.619Z,12.93
2019-05-26T03:00:12.804Z,15.63
2019-05-26T03:02:41.489Z,13.93
2019-05-26T03:05:11.634Z,15.17
2019-05-26T03:07:43.209Z,14.83
2019-05-26T03:10:13.519Z,15.00
2019-05-26T03:12:42.899Z,12.73
2019-05-26T03:15:13.254Z,14.27
2019-05-26T03:17:42.473Z,17.80
2019-05-26T03:20:14.798Z,16.50
2019-05-26T03:22:43.489Z,14.10
2019-05-26T03:25:13.082Z,19.47
2019-05-26T03:27:41.799Z,15.00
2019-05-26T03:30:12.279Z,12.90
2019-05-26T03:32:40.996Z,15.70
2019-05-26T03:35:10.042Z,16.13
2019-05-26T03:37:38.700Z,13.23
2019-05-26T03:40:08.459Z,13.57
2019-05-26T03:42:39.435Z,14.97
2019-05-26T03:45:08.518Z,18.60
2019-05-26T03:47:37.127Z,11.60
2019-05-26T03:50:07.320Z,15.60
2019-05-26T03:52:36.006Z,12.67
2019-05-26T03:55:06.327Z,14.70
2019-05-26T03:57:37.294Z,11.33
2019-05-26T04:00:07.700Z,10.27
2019-05-26T04:02:36.314Z,12.40
2019-05-26T04:05:08.601Z,11.50
2019-05-26T04:07:37.220Z,14.00
2019-05-26T04:10:06.950Z,13.13
2019-05-26T04:12:35.596Z,12.70
2019-05-26T04:15:06.459Z,13.80
2019-05-26T04:17:35.081Z,13.47
2019-05-26T04:20:05.724Z,12.77
2019-05-26T04:22:34.349Z,14.97
2019-05-26T04:25:03.239Z,16.73
2019-05-26T04:27:31.823Z,16.47
2019-05-26T04:30:00.379Z,13.60
2019-05-26T04:32:29.001Z,11.30
2019-05-26T04:34:57.583Z,13.80
2019-05-26T04:37:26.137Z,13.13
2019-05-26T04:39:54.687Z,12.73
2019-05-26T04:42:23.363Z,13.60
2019-05-26T04:44:51.968Z,14.50
2019-05-26T04:47:20.598Z,12.37
2019-05-26T04:49:49.203Z,14.37
2019-05-26T04:52:17.833Z,13.90
2019-05-26T04:54:46.391Z,10.37
2019-05-26T04:57:14.970Z,14.27
2019-05-26T04:59:43.596Z,14.13
2019-05-26T05:02:12.224Z,11.43
2019-05-26T05:04:40.877Z,15.43
2019-05-26T05:07:09.502Z,14.77
2019-05-26T05:09:38.049Z,13.67
2019-05-26T05:12:06.782Z,10.97
2019-05-26T05:14:35.474Z,12.23
2019-05-26T05:17:04.995Z,13.33
2019-05-26T05:19:33.918Z,14.13
2019-05-26T05:22:02.432Z,9.97
2019-05-26T05:24:30.992Z,11.53
2019-05-26T05:26:59.539Z,11.17
2019-05-26T05:29:28.294Z,15.40
2019-05-26T05:31:56.987Z,11.97
2019-05-26T05:34:25.527Z,12.93
2019-05-26T05:36:54.116Z,11.70
2019-05-26T05:39:22.737Z,10.57
2019-05-26T05:41:51.283Z,11.77
2019-05-26T05:44:19.783Z,13.13
2019-05-26T05:46:48.407Z,12.03
2019-05-26T05:49:17.137Z,11.27
2019-05-26T05:51:45.635Z,10.70
2019-05-26T05:54:14.259Z,12.77
2019-05-26T05:56:44.345Z,12.20
2019-05-26T05:59:12.992Z,11.83
2019-05-26T06:01:41.625Z,12.97
2019-05-26T06:04:10.298Z,12.37
2019-05-26T06:06:38.891Z,10.33
2019-05-26T06:09:07.582Z,10.87
2019-05-26T06:11:36.579Z,11.17
2019-05-26T06:14:05.294Z,10.33
2019-05-26T06:16:33.847Z,12.67
2019-05-26T06:19:02.476Z,14.93
2019-05-26T06:21:31.059Z,11.87
2019-05-26T06:23:59.654Z,10.87
2019-05-26T06:26:28.208Z,11.67
2019-05-26T06:28:56.787Z,11.60
2019-05-26T06:31:25.474Z,10.28
2019-05-26T06:33:54.098Z,10.28
2019-05-26T06:36:22.721Z,7.37
2019-05-26T06:38:51.346Z,8.80
2019-05-26T06:41:32.768Z,11.75
2019-05-26T06:43:50.194Z,9.20
2019-05-26T06:46:18.750Z,8.15
2019-05-26T06:48:47.367Z,6.33
2019-05-26T06:51:16.082Z,6.97
2019-05-26T06:53:44.631Z,7.00
2019-05-26T06:56:13.310Z,6.33
2019-05-26T06:58:41.898Z,6.12
2019-05-26T07:01:10.583Z,5.72
2019-05-26T07:03:39.167Z,7.92
2019-05-26T07:06:07.844Z,5.65
2019-05-26T07:08:36.526Z,8.40
2019-05-26T07:11:05.325Z,5.67
2019-05-26T07:13:34.012Z,5.42
2019-05-26T07:16:02.565Z,8.08
2019-05-26T07:18:31.115Z,6.08
2019-05-26T07:20:59.837Z,6.10
2019-05-26T07:23:28.466Z,10.88
2019-05-26T07:25:57.017Z,9.75
2019-05-26T07:28:25.734Z,6.12
2019-05-26T07:30:54.424Z,8.60
2019-05-26T07:33:23.122Z,6.75
2019-05-26T07:35:51.840Z,9.83
2019-05-26T07:38:20.460Z,6.22
2019-05-26T07:40:49.074Z,6.80
2019-05-26T07:43:17.799Z,8.45
2019-05-26T07:45:46.424Z,7.10
2019-05-26T07:48:15.214Z,10.18
2019-05-26T07:50:44.156Z,6.20
2019-05-26T07:53:12.857Z,8.60
2019-05-26T07:55:41.403Z,9.53
2019-05-26T07:58:09.986Z,8.83
2019-05-26T08:00:38.675Z,7.53
2019-05-26T08:03:07.292Z,8.60
2019-05-26T08:05:36.015Z,6.17
2019-05-26T08:08:12.815Z,13.70
2019-05-26T08:10:35.065Z,6.70
2019-05-26T08:13:03.772Z,5.22
2019-05-26T08:15:32.390Z,6.35
2019-05-26T08:18:00.942Z,6.08
2019-05-26T08:20:29.588Z,7.25
2019-05-26T08:22:58.203Z,8.20
2019-05-26T08:25:26.894Z,6.62
2019-05-26T08:27:55.479Z,10.43
2019-05-26T08:30:24.167Z,7.85
2019-05-26T08:32:52.715Z,7.28
2019-05-26T08:35:21.364Z,6.05
2019-05-26T08:37:49.910Z,4.75
2019-05-26T08:40:18.609Z,10.28
2019-05-26T08:42:51.548Z,14.00
2019-05-26T08:45:22.651Z,5.83
2019-05-26T08:47:51.837Z,7.85
2019-05-26T08:50:21.860Z,6.00
2019-05-26T08:52:50.577Z,6.30
2019-05-26T08:55:19.271Z,8.98
2019-05-26T08:57:47.988Z,5.97
2019-05-26T09:00:18.580Z,7.25
2019-05-26T09:02:47.270Z,5.20
2019-05-26T09:05:17.406Z,7.72
2019-05-26T09:07:45.955Z,7.05
2019-05-26T09:10:15.050Z,9.08
2019-05-26T09:12:44.895Z,6.47
2019-05-26T09:15:14.139Z,10.80
2019-05-26T09:17:42.769Z,6.40
2019-05-26T09:20:12.159Z,8.75
2019-05-26T09:22:40.876Z,5.87
2019-05-26T09:25:09.646Z,6.30
2019-05-26T09:27:38.367Z,9.75
2019-05-26T09:30:09.783Z,7.70
2019-05-26T09:32:38.339Z,6.67
2019-05-26T09:35:07.569Z,11.53
2019-05-26T09:37:36.190Z,6.28
2019-05-26T09:40:08.463Z,7.78
2019-05-26T09:42:37.088Z,6.83
2019-05-26T09:45:07.465Z,6.83
2019-05-26T09:47:36.113Z,7.30
2019-05-26T09:50:06.609Z,7.33
2019-05-26T09:52:35.339Z,5.33
2019-05-26T09:55:06.729Z,6.83
2019-05-26T09:57:35.403Z,8.58
2019-05-26T10:00:07.283Z,6.30
2019-05-26T10:02:35.995Z,6.78
2019-05-26T10:05:06.197Z,7.78
2019-05-26T10:07:34.830Z,8.50
2019-05-26T10:10:05.249Z,8.58
2019-05-26T10:12:33.874Z,6.50
2019-05-26T10:15:02.766Z,13.50
2019-05-26T10:17:31.343Z,4.87
2019-05-26T10:19:59.964Z,6.70
2019-05-26T10:22:28.651Z,4.70
2019-05-26T10:24:57.231Z,5.60
2019-05-26T10:27:25.957Z,9.48
2019-05-26T10:29:54.571Z,7.83
2019-05-26T10:32:23.288Z,6.53
2019-05-26T10:34:51.906Z,8.58
2019-05-26T10:37:20.616Z,9.65
2019-05-26T10:39:49.273Z,7.05
2019-05-26T10:42:17.899Z,5.35
2019-05-26T10:44:46.622Z,9.73
2019-05-26T10:47:15.307Z,8.25
2019-05-26T10:49:43.927Z,5.05
2019-05-26T10:52:12.617Z,7.28
2019-05-26T10:54:41.219Z,9.78
2019-05-26T10:57:09.857Z,4.30
2019-05-26T10:59:38.560Z,5.70
2019-05-26T11:02:07.202Z,6.75
2019-05-26T11:04:35.748Z,5.30
2019-05-26T11:07:04.531Z,4.87
2019-05-26T11:09:33.179Z,4.62
2019-05-26T11:12:01.801Z,4.50
2019-05-26T11:14:30.423Z,6.00
2019-05-26T11:16:59.144Z,5.20
2019-05-26T11:19:27.846Z,3.58
2019-05-26T11:21:57.419Z,5.80
2019-05-26T11:24:26.073Z,6.65
2019-05-26T11:26:54.718Z,5.95
2019-05-26T11:29:23.332Z,9.18
2019-05-26T11:31:51.927Z,7.62
2019-05-26T11:34:20.543Z,7.03
2019-05-26T11:36:49.185Z,4.75
2019-05-26T11:39:17.831Z,2.60
2019-05-26T11:41:54.642Z,6.83
2019-05-26T11:44:18.294Z,4.72
2019-05-26T11:46:47.141Z,4.15
2019-05-26T11:49:15.692Z,4.05
2019-05-26T11:51:44.392Z,12.30
2019-05-26T11:54:13.056Z,5.22
2019-05-26T11:56:41.680Z,7.00
2019-05-26T11:59:10.277Z,4.60
2019-05-26T12:01:38.971Z,3.45
2019-05-26T12:04:07.584Z,5.45
2019-05-26T12:06:36.138Z,3.65
2019-05-26T12:09:07.958Z,4.15
2019-05-26T12:11:36.584Z,7.12
2019-05-26T12:14:05.404Z,4.72
2019-05-26T12:16:34.046Z,7.00
2019-05-26T12:19:02.646Z,6.20
2019-05-26T12:21:31.301Z,5.62
2019-05-26T12:23:59.991Z,3.45
2019-05-26T12:26:28.610Z,4.15
2019-05-26T12:28:57.184Z,2.22
2019-05-26T12:31:25.732Z,7.72
2019-05-26T12:33:54.337Z,4.15
2019-05-26T12:36:22.938Z,4.85
2019-05-26T12:38:51.501Z,5.00
2019-05-26T12:41:21.279Z,5.75
2019-05-26T12:43:49.901Z,9.98
2019-05-26T12:46:19.547Z,4.12
2019-05-26T12:48:48.234Z,4.22
2019-05-26T12:51:17.029Z,5.62
2019-05-26T12:53:45.719Z,3.60
2019-05-26T12:56:14.411Z,7.42
2019-05-26T12:58:42.951Z,3.80
2019-05-26T13:01:11.608Z,3.62
2019-05-26T13:03:40.227Z,7.90
2019-05-26T13:06:08.847Z,8.15
2019-05-26T13:08:37.522Z,3.87
2019-05-26T13:11:06.208Z,5.75
2019-05-26T13:13:34.907Z,5.28
2019-05-26T13:16:03.550Z,3.70
2019-05-26T13:18:32.176Z,2.65
2019-05-26T13:21:01.122Z,5.03
2019-05-26T13:23:30.019Z,6.42
2019-05-26T13:25:59.331Z,4.55
2019-05-26T13:28:28.016Z,4.97
2019-05-26T13:30:57.302Z,3.27
2019-05-26T13:33:25.854Z,9.05
2019-05-26T13:35:54.676Z,6.20
2019-05-26T13:38:23.342Z,6.62
2019-05-26T13:40:51.931Z,3.25
2019-05-26T13:43:20.567Z,4.55
2019-05-26T13:45:49.196Z,3.52
2019-05-26T13:48:17.874Z,7.92
2019-05-26T13:50:46.558Z,4.45
2019-05-26T13:53:15.171Z,4.95
2019-05-26T13:55:44.354Z,3.35
2019-05-26T13:58:13.002Z,8.88
2019-05-26T14:00:41.618Z,8.25
2019-05-26T14:03:10.306Z,4.10
2019-05-26T14:05:38.966Z,3.95
2019-05-26T14:08:07.586Z,3.47
2019-05-26T14:10:37.284Z,5.03
2019-05-26T14:13:06.810Z,7.15
2019-05-26T14:15:38.635Z,3.72
2019-05-26T14:18:07.383Z,4.80
2019-05-26T14:20:37.801Z,3.27
2019-05-26T14:23:07.557Z,9.60
2019-05-26T14:25:36.243Z,4.35
2019-05-26T14:28:05.700Z,3.02
2019-05-26T14:30:34.381Z,3.75
2019-05-26T14:33:02.994Z,4.22
2019-05-26T14:35:31.782Z,4.25
2019-05-26T14:38:00.336Z,4.70
2019-05-26T14:40:29.147Z,3.65
2019-05-26T14:42:57.756Z,2.17
2019-05-26T14:45:26.455Z,2.60
2019-05-26T14:47:55.226Z,3.65
2019-05-26T14:50:24.727Z,4.08
2019-05-26T14:52:53.409Z,3.45
2019-05-26T14:55:22.058Z,7.85
2019-05-26T14:57:52.200Z,3.40
2019-05-26T15:00:21.282Z,6.47
2019-05-26T15:02:49.987Z,6.35
2019-05-26T15:05:18.903Z,6.70
2019-05-26T15:07:47.456Z,7.28
2019-05-26T15:10:16.351Z,3.45
2019-05-26T15:12:45.003Z,7.75
2019-05-26T15:15:13.792Z,4.10
2019-05-26T15:17:42.407Z,2.67
2019-05-26T15:20:12.808Z,4.80
2019-05-26T15:22:41.368Z,2.85
2019-05-26T15:25:10.245Z,4.10
2019-05-26T15:27:38.892Z,7.85
2019-05-26T15:30:08.695Z,8.25
2019-05-26T15:32:37.381Z,2.72
2019-05-26T15:35:07.100Z,3.00
2019-05-26T15:37:35.792Z,5.80
2019-05-26T15:40:08.528Z,8.75
2019-05-26T15:42:37.453Z,8.20
2019-05-26T15:45:07.651Z,7.80
2019-05-26T15:47:36.336Z,5.12
2019-05-26T15:50:07.920Z,4.35
2019-05-26T15:52:36.607Z,5.40
2019-05-26T15:55:05.898Z,2.85
2019-05-26T15:57:34.630Z,4.72
2019-05-26T16:00:07.114Z,3.55
2019-05-26T16:02:35.726Z,5.62
2019-05-26T16:05:06.754Z,6.67
2019-05-26T16:07:35.376Z,3.83
2019-05-26T16:10:08.274Z,6.45
2019-05-26T16:12:36.999Z,3.35
2019-05-26T16:15:09.256Z,4.87
2019-05-26T16:17:38.952Z,2.95
2019-05-26T16:20:09.643Z,4.55
2019-05-26T16:22:38.223Z,6.55
2019-05-26T16:25:07.309Z,5.35
2019-05-26T16:27:35.855Z,5.67
2019-05-26T16:30:09.598Z,4.92
2019-05-26T16:32:38.359Z,5.75
2019-05-26T16:35:07.382Z,5.28
2019-05-26T16:37:35.962Z,3.42
2019-05-26T16:40:06.450Z,4.17
2019-05-26T16:42:35.077Z,5.03
2019-05-26T16:45:04.795Z,7.00
2019-05-26T16:47:33.414Z,4.72
2019-05-26T16:50:02.023Z,6.97
2019-05-26T16:52:31.135Z,8.13
2019-05-26T16:54:59.822Z,20.82
2019-05-26T16:57:28.447Z,9.43
2019-05-26T16:59:57.006Z,8.43
2019-05-26T17:02:25.946Z,5.70
2019-05-26T17:04:54.630Z,5.80
2019-05-26T17:07:23.271Z,5.33
2019-05-26T17:09:51.923Z,6.65
2019-05-26T17:12:20.630Z,5.53
2019-05-26T17:14:49.180Z,4.22
2019-05-26T17:17:17.921Z,4.83
2019-05-26T17:19:46.610Z,7.70
2019-05-26T17:22:15.248Z,9.55
2019-05-26T17:24:43.954Z,4.60
2019-05-26T17:27:12.656Z,6.05
2019-05-26T17:29:41.287Z,5.95
2019-05-26T17:32:10.023Z,8.98
2019-05-26T17:34:38.730Z,5.05
2019-05-26T17:37:07.364Z,7.42
2019-05-26T17:39:36.008Z,7.00
2019-05-26T17:42:04.743Z,6.08
2019-05-26T17:44:33.448Z,5.60
2019-05-26T17:47:02.073Z,5.33
2019-05-26T17:49:30.752Z,8.70
2019-05-26T17:51:59.445Z,7.70
2019-05-26T17:54:28.174Z,7.53
2019-05-26T17:56:56.872Z,6.03
2019-05-26T17:59:25.609Z,7.28
2019-05-26T18:01:54.244Z,6.47
2019-05-26T18:04:22.872Z,6.05
2019-05-26T18:06:51.573Z,7.62
2019-05-26T18:09:20.256Z,8.10
2019-05-26T18:11:48.899Z,4.95
2019-05-26T18:14:17.542Z,7.47
2019-05-26T18:16:46.170Z,4.75
2019-05-26T18:19:14.876Z,6.12
2019-05-26T18:21:43.627Z,11.68
2019-05-26T18:24:12.263Z,5.85
2019-05-26T18:26:40.908Z,11.93
2019-05-26T18:29:09.575Z,5.12
2019-05-26T18:31:38.215Z,5.90
2019-05-26T18:34:06.923Z,4.42
2019-05-26T18:36:35.643Z,11.20
2019-05-26T18:39:05.911Z,5.28
2019-05-26T18:41:34.623Z,5.75
2019-05-26T18:44:03.356Z,6.62
2019-05-26T18:46:32.097Z,8.58
2019-05-26T18:49:00.803Z,6.60
2019-05-26T18:51:29.470Z,6.50
2019-05-26T18:53:58.173Z,4.67
2019-05-26T18:56:26.781Z,7.75
2019-05-26T18:58:55.435Z,6.12
2019-05-26T19:01:24.130Z,11.03
2019-05-26T19:03:52.713Z,10.30
2019-05-26T19:06:21.291Z,11.30
2019-05-26T19:08:49.984Z,8.43
2019-05-26T19:11:18.677Z,5.83
2019-05-26T19:13:47.321Z,10.58
2019-05-26T19:16:15.934Z,6.63
2019-05-26T19:18:44.626Z,7.25
2019-05-26T19:21:13.201Z,10.55
2019-05-26T19:23:41.822Z,8.33
2019-05-26T19:26:10.298Z,10.70
2019-05-26T19:28:38.854Z,10.33
2019-05-26T19:31:07.418Z,15.95
2019-05-26T19:33:35.971Z,13.77
2019-05-26T19:36:09.038Z,10.30
2019-05-26T19:38:35.025Z,8.60
2019-05-26T19:41:03.649Z,8.80
2019-05-26T19:43:32.262Z,9.75
2019-05-26T19:46:00.869Z,9.60
2019-05-26T19:48:36.580Z,8.50
2019-05-26T19:50:59.742Z,7.63
2019-05-26T19:53:28.435Z,7.07
2019-05-26T19:55:57.054Z,12.13
2019-05-26T19:58:28.505Z,7.63
2019-05-26T20:00:56.025Z,14.57
2019-05-26T20:03:24.701Z,10.55
2019-05-26T20:05:53.374Z,8.87
2019-05-26T20:08:21.922Z,8.70
2019-05-26T20:10:50.584Z,7.30
2019-05-26T20:13:19.151Z,20.67
2019-05-26T20:15:47.842Z,33.53
2019-05-26T20:18:16.535Z,30.57
2019-05-26T20:20:45.084Z,23.80
2019-05-26T20:23:13.635Z,15.83
2019-05-26T20:25:42.302Z,19.30
2019-05-26T20:28:10.852Z,9.17
2019-05-26T20:30:39.401Z,8.00
2019-05-26T20:33:08.014Z,10.27
2019-05-26T20:35:36.684Z,9.23
2019-05-26T20:38:05.282Z,11.30
2019-05-26T20:40:33.837Z,10.67
2019-05-26T20:43:02.455Z,9.13
2019-05-26T20:45:31.042Z,11.20
2019-05-26T20:47:59.596Z,11.20
2019-05-26T20:50:29.749Z,12.63
2019-05-26T20:52:58.664Z,9.67
2019-05-26T20:55:27.370Z,16.00
2019-05-26T20:57:55.987Z,17.57
2019-05-26T21:00:24.671Z,17.93
2019-05-26T21:02:53.299Z,10.20
2019-05-26T21:05:21.947Z,12.90
2019-05-26T21:07:50.661Z,12.73
2019-05-26T21:10:19.345Z,11.50
2019-05-26T21:12:47.966Z,10.50
2019-05-26T21:15:16.612Z,11.27
2019-05-26T21:17:45.171Z,14.17
2019-05-26T21:20:14.362Z,17.17
2019-05-26T21:22:42.999Z,21.67
2019-05-26T21:25:12.695Z,30.33
2019-05-26T21:27:41.391Z,38.73
2019-05-26T21:30:10.354Z,35.63
2019-05-26T21:32:38.898Z,27.10
2019-05-26T21:35:07.995Z,22.73
2019-05-26T21:37:37.838Z,19.20
2019-05-26T21:40:08.052Z,17.57
2019-05-26T21:42:36.786Z,20.60
2019-05-26T21:45:06.883Z,17.47
2019-05-26T21:47:35.538Z,21.93
2019-05-26T21:50:06.018Z,28.60
2019-05-26T21:52:34.507Z,28.00
2019-05-26T21:55:03.071Z,18.97
2019-05-26T21:57:31.631Z,30.43
2019-05-26T22:00:00.308Z,31.70
2019-05-26T22:02:28.923Z,35.40
2019-05-26T22:04:57.576Z,31.83
2019-05-26T22:07:26.170Z,25.77
2019-05-26T22:09:54.782Z,22.33
2019-05-26T22:12:23.427Z,18.40
2019-05-26T22:14:51.951Z,19.80
2019-05-26T22:17:20.574Z,17.77
2019-05-26T22:19:49.134Z,11.83
2019-05-26T22:22:17.738Z,17.10
2019-05-26T22:24:46.286Z,10.63
2019-05-26T22:27:14.772Z,10.77
2019-05-26T22:29:43.436Z,11.70
2019-05-26T22:32:11.979Z,11.47
2019-05-26T22:34:40.597Z,10.13
2019-05-26T22:37:09.314Z,10.43
2019-05-26T22:39:37.930Z,11.50
2019-05-26T22:42:06.644Z,12.80
2019-05-26T22:44:35.223Z,11.47
2019-05-26T22:47:03.857Z,11.90
2019-05-26T22:49:32.398Z,11.33
2019-05-26T22:52:02.699Z,9.53
2019-05-26T22:54:31.246Z,9.77
2019-05-26T22:56:59.867Z,9.73
2019-05-26T22:59:28.442Z,10.73
2019-05-26T23:01:57.065Z,11.77
2019-05-26T23:04:25.690Z,11.00
2019-05-26T23:06:54.330Z,10.60
2019-05-26T23:09:22.947Z,10.30
2019-05-26T23:11:51.587Z,17.80
2019-05-26T23:14:20.245Z,10.47
2019-05-26T23:16:48.871Z,11.90
2019-05-26T23:19:19.742Z,13.37
2019-05-26T23:21:47.718Z,10.43
2019-05-26T23:24:16.267Z,15.00
2019-05-26T23:26:44.814Z,13.83
2019-05-26T23:29:13.333Z,10.30
2019-05-26T23:31:41.878Z,12.57
2019-05-26T23:34:10.431Z,10.77
2019-05-26T23:36:39.093Z,14.63
2019-05-26T23:39:07.848Z,13.57
2019-05-26T23:41:36.400Z,13.27
2019-05-26T23:44:05.038Z,10.93
2019-05-26T23:46:33.662Z,11.97
2019-05-26T23:49:02.209Z,13.67
2019-05-26T23:51:30.796Z,14.23
2019-05-26T23:53:59.481Z,10.77
2019-05-26T23:56:28.166Z,12.33
2019-05-26T23:58:56.747Z,13.93
